createdAt,value
2022-10-06T00:00:23.013Z,1011.55
2022-10-06T00:01:24.375Z,1011.51
2022-10-06T00:02:23.893Z,1011.53
2022-10-06T00:03:26.713Z,1011.61
2022-10-06T00:04:27.565Z,1011.65
2022-10-06T00:05:24.406Z,1011.67
2022-10-06T00:06:27.646Z,1011.68
2022-10-06T00:07:25.889Z,1011.72
2022-10-06T00:08:26.678Z,1011.84
2022-10-06T00:09:29.081Z,1011.80
2022-10-06T00:10:25.897Z,1011.86
2022-10-06T00:11:27.213Z,1011.89
2022-10-06T00:12:27.433Z,1011.89
2022-10-06T00:13:28.657Z,1011.90
2022-10-06T00:14:29.164Z,1011.89
2022-10-06T00:15:28.203Z,1011.83
2022-10-06T00:16:28.670Z,1011.84
2022-10-06T00:17:27.971Z,1011.89
2022-10-06T00:18:28.617Z,1011.92
2022-10-06T00:19:29.346Z,1011.93
2022-10-06T00:20:30.795Z,1011.94
2022-10-06T00:21:31.722Z,1011.89
2022-10-06T00:22:29.499Z,1011.80
2022-10-06T00:23:32.680Z,1011.80
2022-10-06T00:24:30.889Z,1011.79
2022-10-06T00:25:32.345Z,1011.75
2022-10-06T00:26:30.719Z,1011.72
2022-10-06T00:27:30.941Z,1011.70
2022-10-06T00:28:31.824Z,1011.67
2022-10-06T00:29:33.438Z,1011.64
2022-10-06T00:30:33.595Z,1011.65
2022-10-06T00:31:34.154Z,1011.64
2022-10-06T00:32:32.368Z,1011.70
2022-10-06T00:33:32.744Z,1011.69
2022-10-06T00:34:33.775Z,1011.66
2022-10-06T00:35:35.289Z,1011.67
2022-10-06T00:36:33.594Z,1011.78
2022-10-06T00:37:34.727Z,1011.71
2022-10-06T00:38:35.968Z,1011.77
2022-10-06T00:39:34.359Z,1011.81
2022-10-06T00:40:36.506Z,1011.89
2022-10-06T00:41:35.910Z,1011.91
2022-10-06T00:42:36.073Z,1011.94
2022-10-06T00:43:37.396Z,1011.93
2022-10-06T00:44:35.847Z,1011.97
2022-10-06T00:45:36.034Z,1011.95
2022-10-06T00:46:37.396Z,1012.03
2022-10-06T00:47:38.563Z,1011.97
2022-10-06T00:48:37.756Z,1011.99
2022-10-06T00:49:38.949Z,1012.08
2022-10-06T00:50:39.133Z,1012.45
2022-10-06T00:51:40.818Z,1012.04
2022-10-06T00:52:38.234Z,1012.03
2022-10-06T00:53:39.429Z,1012.09
2022-10-06T00:54:38.805Z,1012.16
2022-10-06T00:55:39.108Z,1012.14
2022-10-06T00:56:42.270Z,1012.11
2022-10-06T00:57:41.570Z,1012.12
2022-10-06T00:58:41.739Z,1012.12
2022-10-06T00:59:41.918Z,1012.15
2022-10-06T01:00:40.552Z,1012.21
2022-10-06T01:01:41.733Z,1012.27
2022-10-06T01:02:43.087Z,1012.23
2022-10-06T01:03:43.280Z,1012.26
2022-10-06T01:04:41.797Z,1012.27
2022-10-06T01:05:42.187Z,1012.15
2022-10-06T01:06:42.504Z,1012.23
2022-10-06T01:07:43.643Z,1012.25
2022-10-06T01:08:44.832Z,1012.15
2022-10-06T01:09:43.338Z,1012.25
2022-10-06T01:10:43.658Z,1012.22
2022-10-06T01:11:46.471Z,1012.34
2022-10-06T01:12:44.248Z,1012.35
2022-10-06T01:13:44.559Z,1012.35
2022-10-06T01:14:46.744Z,1012.38
2022-10-06T01:15:45.252Z,1012.40
2022-10-06T01:16:48.314Z,1012.41
2022-10-06T01:17:47.548Z,1012.41
2022-10-06T01:18:47.781Z,1012.57
2022-10-06T01:19:46.410Z,1012.53
2022-10-06T01:20:46.737Z,1012.53
2022-10-06T01:21:49.887Z,1012.62
2022-10-06T01:22:47.294Z,1012.58
2022-10-06T01:23:49.471Z,1012.51
2022-10-06T01:24:49.665Z,1012.63
2022-10-06T01:25:48.180Z,1012.69
2022-10-06T01:26:51.357Z,1012.63
2022-10-06T01:27:48.814Z,1012.71
2022-10-06T01:28:49.096Z,1012.76
2022-10-06T01:29:51.183Z,1012.79
2022-10-06T01:30:51.413Z,1012.81
2022-10-06T01:31:52.358Z,1012.90
2022-10-06T01:32:50.136Z,1012.93
2022-10-06T01:33:52.316Z,1012.91
2022-10-06T01:34:50.700Z,1012.90
2022-10-06T01:35:51.022Z,1012.98
2022-10-06T01:36:54.804Z,1013.01
2022-10-06T01:37:51.592Z,1013.01
2022-10-06T01:38:51.916Z,1013.04
2022-10-06T01:39:52.227Z,1013.03
2022-10-06T01:40:54.416Z,1013.02
2022-10-06T01:41:53.701Z,1013.03
2022-10-06T01:42:53.077Z,1013.04
2022-10-06T01:43:55.255Z,1012.98
2022-10-06T01:44:55.456Z,1012.98
2022-10-06T01:45:53.973Z,1013.03
2022-10-06T01:46:55.756Z,1013.03
2022-10-06T01:47:56.485Z,1013.04
2022-10-06T01:48:56.671Z,1012.99
2022-10-06T01:49:55.174Z,1013.01
2022-10-06T01:50:55.486Z,1013.06
2022-10-06T01:51:58.286Z,1013.04
2022-10-06T01:52:58.043Z,1013.10
2022-10-06T01:53:58.221Z,1013.06
2022-10-06T01:54:56.616Z,1013.05
2022-10-06T01:55:56.948Z,1013.10
2022-10-06T01:57:00.611Z,1013.09
2022-10-06T01:57:59.318Z,1013.09
2022-10-06T01:58:59.505Z,1013.05
2022-10-06T01:59:58.136Z,1013.05
2022-10-06T02:00:58.446Z,1013.18
2022-10-06T02:02:01.309Z,1013.18
2022-10-06T02:03:00.967Z,1013.19
2022-10-06T02:04:02.628Z,1013.19
2022-10-06T02:05:01.337Z,1013.22
2022-10-06T02:06:01.571Z,1013.20
2022-10-06T02:07:00.287Z,1013.17
2022-10-06T02:08:01.414Z,1013.22
2022-10-06T02:09:03.521Z,1013.23
2022-10-06T02:10:02.002Z,1013.25
2022-10-06T02:11:02.183Z,1013.17
2022-10-06T02:12:04.522Z,1013.24
2022-10-06T02:13:02.759Z,1013.17
2022-10-06T02:14:04.114Z,1013.25
2022-10-06T02:15:04.298Z,1013.26
2022-10-06T02:16:03.818Z,1013.30
2022-10-06T02:17:04.168Z,1013.29
2022-10-06T02:18:04.333Z,1013.35
2022-10-06T02:19:05.667Z,1013.33
2022-10-06T02:20:03.930Z,1013.43
2022-10-06T02:21:07.599Z,1013.47
2022-10-06T02:22:07.273Z,1013.29
2022-10-06T02:23:05.637Z,1013.41
2022-10-06T02:24:06.054Z,1013.45
2022-10-06T02:25:07.326Z,1013.45
2022-10-06T02:26:06.643Z,1013.48
2022-10-06T02:27:08.835Z,1013.49
2022-10-06T02:28:07.308Z,1013.44
2022-10-06T02:29:07.373Z,1013.56
2022-10-06T02:30:08.718Z,1013.55
2022-10-06T02:31:08.026Z,1013.61
2022-10-06T02:32:07.462Z,1013.62
2022-10-06T02:33:07.654Z,1013.62
2022-10-06T02:34:07.964Z,1013.68
2022-10-06T02:35:09.156Z,1013.61
2022-10-06T02:36:08.556Z,1013.61
2022-10-06T02:37:12.175Z,1013.62
2022-10-06T02:38:09.220Z,1013.64
2022-10-06T02:39:11.386Z,1013.70
2022-10-06T02:40:11.702Z,1013.70
2022-10-06T02:41:11.876Z,1013.75
2022-10-06T02:42:12.023Z,1013.77
2022-10-06T02:43:10.661Z,1013.78
2022-10-06T02:44:12.841Z,1013.80
2022-10-06T02:45:13.035Z,1013.92
2022-10-06T02:46:11.562Z,1013.89
2022-10-06T02:47:12.201Z,1013.87
2022-10-06T02:48:12.175Z,1013.91
2022-10-06T02:49:12.489Z,1013.87
2022-10-06T02:50:14.714Z,1013.94
2022-10-06T02:51:13.095Z,1013.98
2022-10-06T02:52:15.259Z,1014.05
2022-10-06T02:53:15.435Z,1014.00
2022-10-06T02:54:15.627Z,1014.01
2022-10-06T02:55:15.807Z,1013.91
2022-10-06T02:56:16.496Z,1014.08
2022-10-06T02:57:16.679Z,1014.03
2022-10-06T02:58:16.860Z,1014.01
2022-10-06T02:59:17.057Z,1014.14
2022-10-06T03:00:17.761Z,1014.20
2022-10-06T03:01:16.254Z,1014.14
2022-10-06T03:02:18.448Z,1014.13
2022-10-06T03:03:16.699Z,1014.20
2022-10-06T03:04:18.874Z,1014.15
2022-10-06T03:05:19.136Z,1014.12
2022-10-06T03:06:17.520Z,1014.14
2022-10-06T03:07:19.708Z,1014.19
2022-10-06T03:08:18.097Z,1014.29
2022-10-06T03:09:18.414Z,1014.26
2022-10-06T03:10:20.591Z,1014.27
2022-10-06T03:11:19.936Z,1014.38
2022-10-06T03:12:21.183Z,1014.27
2022-10-06T03:13:19.576Z,1014.35
2022-10-06T03:14:22.131Z,1014.32
2022-10-06T03:15:20.142Z,1014.30
2022-10-06T03:16:23.831Z,1014.29
2022-10-06T03:17:22.092Z,1014.41
2022-10-06T03:18:21.092Z,1014.48
2022-10-06T03:19:21.408Z,1014.53
2022-10-06T03:20:21.717Z,1014.55
2022-10-06T03:21:24.933Z,1014.53
2022-10-06T03:22:24.159Z,1014.53
2022-10-06T03:23:24.360Z,1014.55
2022-10-06T03:24:23.002Z,1014.55
2022-10-06T03:25:23.310Z,1014.57
2022-10-06T03:26:24.423Z,1014.58
2022-10-06T03:27:25.825Z,1014.55
2022-10-06T03:28:24.286Z,1014.64
2022-10-06T03:29:24.440Z,1014.68
2022-10-06T03:30:24.751Z,1014.59
2022-10-06T03:31:29.549Z,1014.77
2022-10-06T03:32:27.171Z,1014.72
2022-10-06T03:33:25.548Z,1014.80
2022-10-06T03:34:27.705Z,1014.69
2022-10-06T03:35:26.190Z,1014.83
2022-10-06T03:36:27.301Z,1014.72
2022-10-06T03:37:28.712Z,1014.74
2022-10-06T03:38:27.516Z,1014.78
2022-10-06T03:39:27.433Z,1014.79
2022-10-06T03:40:27.746Z,1014.82
2022-10-06T03:41:29.104Z,1014.83
2022-10-06T03:42:30.274Z,1014.85
2022-10-06T03:43:28.661Z,1014.84
2022-10-06T03:44:30.841Z,1014.83
2022-10-06T03:45:31.054Z,1014.89
2022-10-06T03:46:29.643Z,1014.83
2022-10-06T03:47:32.725Z,1014.96
2022-10-06T03:48:30.509Z,1015.12
2022-10-06T03:49:33.270Z,1015.06
2022-10-06T03:50:30.673Z,1014.99
2022-10-06T03:51:32.778Z,1014.97
2022-10-06T03:52:32.164Z,1015.14
2022-10-06T03:54:49.341Z,1015.11
2022-10-06T03:55:49.544Z,1015.10
2022-10-06T03:56:49.972Z,1015.16
2022-10-06T03:57:49.339Z,1015.05
2022-10-06T03:58:51.527Z,1015.11
2022-10-06T03:59:50.958Z,1015.02
2022-10-06T04:00:51.158Z,1015.14
2022-10-06T04:01:51.565Z,1015.19
2022-10-06T04:02:51.685Z,1015.34
2022-10-06T04:03:54.046Z,1015.21
2022-10-06T04:04:53.286Z,1015.26
2022-10-06T04:05:52.634Z,1015.27
2022-10-06T04:06:52.839Z,1015.30
2022-10-06T04:07:54.191Z,1015.30
2022-10-06T04:08:55.376Z,1015.31
2022-10-06T04:09:52.905Z,1015.42
2022-10-06T04:10:53.426Z,1015.38
2022-10-06T04:11:53.444Z,1015.45
2022-10-06T04:12:53.760Z,1015.47
2022-10-06T04:13:54.983Z,1015.45
2022-10-06T04:14:59.942Z,1015.46
2022-10-06T04:15:54.650Z,1015.46
2022-10-06T04:16:54.921Z,1015.48
2022-10-06T04:17:55.243Z,1015.58
2022-10-06T04:18:56.553Z,1015.59
2022-10-06T04:19:57.807Z,1015.60
2022-10-06T04:20:56.056Z,1015.60
2022-10-06T04:21:57.389Z,1015.62
2022-10-06T04:22:57.582Z,1015.69
2022-10-06T04:23:59.807Z,1015.70
2022-10-06T04:24:58.061Z,1015.64
2022-10-06T04:25:57.560Z,1015.72
2022-10-06T04:26:58.904Z,1015.77
2022-10-06T04:27:58.202Z,1015.81
2022-10-06T04:29:00.348Z,1015.76
2022-10-06T04:29:58.750Z,1015.73
2022-10-06T04:31:00.927Z,1015.81
2022-10-06T04:32:02.159Z,1015.79
2022-10-06T04:32:59.620Z,1015.87
2022-10-06T04:34:01.802Z,1015.87
2022-10-06T04:35:01.969Z,1015.91
2022-10-06T04:36:02.163Z,1016.00
2022-10-06T04:37:03.328Z,1015.97
2022-10-06T04:38:01.109Z,1015.94
2022-10-06T04:39:03.289Z,1015.95
2022-10-06T04:40:01.677Z,1015.96
2022-10-06T04:41:03.862Z,1015.98
2022-10-06T04:42:04.843Z,1016.02
2022-10-06T04:43:04.260Z,1016.04
2022-10-06T04:44:02.773Z,1016.08
2022-10-06T04:45:04.954Z,1016.11
2022-10-06T04:46:18.128Z,1016.10
2022-10-06T04:47:07.508Z,1016.15
2022-10-06T04:48:05.741Z,1016.13
2022-10-06T04:49:04.245Z,1016.30
2022-10-06T04:50:04.558Z,1016.20
2022-10-06T04:51:04.862Z,1016.35
2022-10-06T04:52:08.027Z,1016.27
2022-10-06T04:53:06.272Z,1016.28
2022-10-06T04:54:05.761Z,1016.31
2022-10-06T04:55:06.917Z,1016.27
2022-10-06T04:56:06.412Z,1016.35
2022-10-06T04:57:10.110Z,1016.27
2022-10-06T04:58:09.822Z,1016.38
2022-10-06T04:59:09.056Z,1016.38
2022-10-06T05:00:13.923Z,1016.45
2022-10-06T05:01:09.963Z,1016.49
2022-10-06T05:02:08.362Z,1016.51
2022-10-06T05:03:11.971Z,1016.56
2022-10-06T05:04:10.675Z,1016.52
2022-10-06T05:05:10.858Z,1016.69
2022-10-06T05:06:11.039Z,1016.60
2022-10-06T05:07:09.794Z,1016.66
2022-10-06T05:08:12.101Z,1016.64
2022-10-06T05:09:11.206Z,1016.63
2022-10-06T05:10:12.566Z,1016.56
2022-10-06T05:11:15.062Z,1016.56
2022-10-06T05:12:12.293Z,1016.73
2022-10-06T05:13:13.483Z,1016.73
2022-10-06T05:14:11.875Z,1016.75
2022-10-06T05:15:12.194Z,1016.73
2022-10-06T05:16:12.589Z,1016.78
2022-10-06T05:17:12.867Z,1016.77
2022-10-06T05:18:15.039Z,1016.85
2022-10-06T05:19:15.221Z,1016.85
2022-10-06T05:20:13.740Z,1016.90
2022-10-06T05:21:15.926Z,1016.91
2022-10-06T05:22:14.326Z,1016.87
2022-10-06T05:23:14.742Z,1016.93
2022-10-06T05:24:14.980Z,1016.96
2022-10-06T05:25:15.197Z,1017.03
2022-10-06T05:26:17.371Z,1017.06
2022-10-06T05:27:15.778Z,1017.09
2022-10-06T05:28:16.166Z,1017.14
2022-10-06T05:29:16.356Z,1017.13
2022-10-06T05:30:16.705Z,1017.02
2022-10-06T05:31:19.887Z,1017.12
2022-10-06T05:32:20.003Z,1017.13
2022-10-06T05:33:19.001Z,1017.12
2022-10-06T05:34:21.184Z,1017.17
2022-10-06T05:35:18.097Z,1017.08
2022-10-06T05:36:18.447Z,1017.20
2022-10-06T05:37:18.780Z,1017.18
2022-10-06T05:38:20.974Z,1017.21
2022-10-06T05:39:21.155Z,1017.22
2022-10-06T05:40:20.523Z,1017.26
2022-10-06T05:41:19.912Z,1017.25
2022-10-06T05:42:20.250Z,1017.26
2022-10-06T05:43:22.440Z,1017.28
2022-10-06T05:44:22.612Z,1017.37
2022-10-06T05:45:21.149Z,1017.42
2022-10-06T05:46:22.258Z,1017.39
2022-10-06T05:47:22.607Z,1017.39
2022-10-06T05:48:23.833Z,1017.39
2022-10-06T05:49:22.984Z,1017.45
2022-10-06T05:50:25.300Z,1017.47
2022-10-06T05:51:27.911Z,1017.53
2022-10-06T05:52:26.907Z,1017.46
2022-10-06T05:53:25.156Z,1017.51
2022-10-06T05:54:23.715Z,1017.54
2022-10-06T05:55:25.916Z,1017.57
2022-10-06T05:56:25.127Z,1017.61
2022-10-06T05:57:24.579Z,1017.55
2022-10-06T05:58:26.757Z,1017.65
2022-10-06T05:59:25.067Z,1017.62
2022-10-06T06:00:25.287Z,1017.67
2022-10-06T06:01:26.623Z,1017.66
2022-10-06T06:02:26.879Z,1017.68
2022-10-06T06:03:28.061Z,1017.71
2022-10-06T06:04:28.238Z,1017.77
2022-10-06T06:05:28.430Z,1017.74
2022-10-06T06:06:28.092Z,1017.75
2022-10-06T06:07:29.256Z,1017.78
2022-10-06T06:08:29.687Z,1017.83
2022-10-06T06:09:30.034Z,1017.79
2022-10-06T06:10:29.900Z,1017.90
2022-10-06T06:11:28.562Z,1017.83
2022-10-06T06:12:30.766Z,1017.86
2022-10-06T06:13:31.892Z,1017.92
2022-10-06T06:14:31.334Z,1017.92
2022-10-06T06:15:31.336Z,1017.98
2022-10-06T06:16:31.584Z,1017.97
2022-10-06T06:17:31.687Z,1018.02
2022-10-06T06:18:32.778Z,1018.08
2022-10-06T06:19:33.541Z,1018.15
2022-10-06T06:20:32.770Z,1018.03
2022-10-06T06:21:32.928Z,1018.03
2022-10-06T06:22:33.115Z,1018.10
2022-10-06T06:23:32.811Z,1018.28
2022-10-06T06:24:35.002Z,1018.12
2022-10-06T06:25:32.561Z,1018.28
2022-10-06T06:26:32.786Z,1018.03
2022-10-06T06:27:35.000Z,1018.15
2022-10-06T06:28:35.233Z,1018.18
2022-10-06T06:29:34.758Z,1018.25
2022-10-06T06:30:35.959Z,1018.24
2022-10-06T06:31:36.166Z,1018.21
2022-10-06T06:32:34.674Z,1018.17
2022-10-06T06:33:36.853Z,1018.28
2022-10-06T06:34:37.993Z,1018.35
2022-10-06T06:35:35.445Z,1018.36
2022-10-06T06:36:36.703Z,1018.38
2022-10-06T06:37:37.903Z,1018.36
2022-10-06T06:38:38.085Z,1018.39
2022-10-06T06:39:38.264Z,1018.41
2022-10-06T06:40:38.949Z,1018.40
2022-10-06T06:41:38.262Z,1018.42
2022-10-06T06:42:37.532Z,1018.50
2022-10-06T06:43:39.810Z,1018.54
2022-10-06T06:44:37.983Z,1018.56
2022-10-06T06:45:39.430Z,1018.54
2022-10-06T06:46:42.030Z,1018.59
2022-10-06T06:47:38.851Z,1018.60
2022-10-06T06:48:39.085Z,1018.61
2022-10-06T06:49:39.313Z,1018.68
2022-10-06T06:50:40.427Z,1018.67
2022-10-06T06:51:41.945Z,1018.71
2022-10-06T06:52:40.116Z,1018.74
2022-10-06T06:53:40.356Z,1018.70
2022-10-06T06:54:40.580Z,1018.69
2022-10-06T06:55:40.915Z,1018.74
2022-10-06T06:56:43.026Z,1018.78
2022-10-06T06:57:41.448Z,1018.79
2022-10-06T06:58:41.677Z,1018.80
2022-10-06T06:59:41.907Z,1018.85
2022-10-06T07:00:42.305Z,1018.89
2022-10-06T07:01:43.475Z,1018.96
2022-10-06T07:02:44.610Z,1018.88
2022-10-06T07:03:57.075Z,1018.91
2022-10-06T07:04:44.153Z,1019.01
2022-10-06T07:05:44.408Z,1018.98
2022-10-06T07:06:45.639Z,1018.99
2022-10-06T07:07:45.819Z,1019.04
2022-10-06T07:08:44.237Z,1019.01
2022-10-06T07:09:46.400Z,1019.09
2022-10-06T07:10:44.894Z,1019.10
2022-10-06T07:11:47.038Z,1019.09
2022-10-06T07:12:45.449Z,1019.07
2022-10-06T07:13:47.640Z,1019.14
2022-10-06T07:14:46.065Z,1019.03
2022-10-06T07:15:49.780Z,1019.11
2022-10-06T07:16:46.692Z,1019.11
2022-10-06T07:17:48.880Z,1019.17
2022-10-06T07:18:49.062Z,1019.22
2022-10-06T07:19:47.494Z,1019.18
2022-10-06T07:20:51.177Z,1019.20
2022-10-06T07:21:47.981Z,1019.28
2022-10-06T07:22:50.168Z,1019.30
2022-10-06T07:23:50.345Z,1019.31
2022-10-06T07:24:49.707Z,1019.35
2022-10-06T07:25:52.436Z,1019.29
2022-10-06T07:26:49.254Z,1019.33
2022-10-06T07:27:51.430Z,1019.30
2022-10-06T07:28:49.859Z,1019.30
2022-10-06T07:29:50.347Z,1019.24
2022-10-06T07:30:53.222Z,1019.35
2022-10-06T07:31:50.664Z,1019.37
2022-10-06T07:32:53.803Z,1019.46
2022-10-06T07:33:51.245Z,1019.44
2022-10-06T07:34:51.750Z,1019.41
2022-10-06T07:35:52.759Z,1019.51
2022-10-06T07:36:52.051Z,1019.47
2022-10-06T07:37:54.242Z,1019.53
2022-10-06T07:38:53.478Z,1019.63
2022-10-06T07:39:55.665Z,1019.55
2022-10-06T07:41:17.906Z,1019.56
2022-10-06T07:41:54.393Z,1019.61
2022-10-06T07:42:53.687Z,1019.59
2022-10-06T07:43:55.866Z,1019.64
2022-10-06T07:44:56.446Z,1019.78
2022-10-06T07:45:57.189Z,1019.66
2022-10-06T07:46:55.528Z,1019.70
2022-10-06T07:47:56.907Z,1019.69
2022-10-06T07:48:55.323Z,1019.69
2022-10-06T07:49:55.674Z,1019.75
2022-10-06T07:50:57.469Z,1019.77
2022-10-06T07:51:56.139Z,1019.82
2022-10-06T07:52:59.748Z,1019.82
2022-10-06T07:53:59.437Z,1019.79
2022-10-06T07:54:57.829Z,1019.71
2022-10-06T07:56:00.157Z,1019.72
2022-10-06T07:56:58.406Z,1019.89
2022-10-06T07:57:58.569Z,1019.92
2022-10-06T07:58:59.923Z,1019.93
2022-10-06T08:00:02.882Z,1019.85
2022-10-06T08:01:00.325Z,1019.91
2022-10-06T08:02:00.699Z,1019.84
2022-10-06T08:02:59.920Z,1019.92
2022-10-06T08:04:01.226Z,1019.92
2022-10-06T08:05:01.399Z,1019.99
2022-10-06T08:06:02.550Z,1019.96
2022-10-06T08:07:01.855Z,1020.01
2022-10-06T08:08:02.467Z,1020.06
2022-10-06T08:09:01.742Z,1020.17
2022-10-06T08:10:02.015Z,1020.11
2022-10-06T08:11:04.734Z,1020.06
2022-10-06T08:12:02.563Z,1020.06
2022-10-06T08:13:03.941Z,1020.13
2022-10-06T08:14:02.123Z,1020.10
2022-10-06T08:15:05.980Z,1020.16
2022-10-06T08:16:07.145Z,1020.14
2022-10-06T08:17:02.967Z,1020.09
2022-10-06T08:18:12.171Z,1020.23
2022-10-06T08:19:04.438Z,1020.21
2022-10-06T08:20:03.955Z,1020.23
2022-10-06T08:21:06.098Z,1020.24
2022-10-06T08:22:07.768Z,1020.23
2022-10-06T08:23:06.395Z,1020.19
2022-10-06T08:24:06.591Z,1020.28
2022-10-06T08:25:07.313Z,1020.33
2022-10-06T08:26:07.969Z,1020.44
2022-10-06T08:27:07.192Z,1020.33
2022-10-06T08:28:09.422Z,1020.41
2022-10-06T08:29:08.064Z,1020.42
2022-10-06T08:30:07.650Z,1020.41
2022-10-06T08:31:09.854Z,1020.39
2022-10-06T08:32:09.052Z,1020.51
2022-10-06T08:33:09.228Z,1020.54
2022-10-06T08:34:12.064Z,1020.51
2022-10-06T08:35:08.065Z,1020.49
2022-10-06T08:36:11.749Z,1020.58
2022-10-06T08:37:19.958Z,1020.44
2022-10-06T08:38:11.823Z,1020.56
2022-10-06T08:39:10.993Z,1020.58
2022-10-06T08:40:11.157Z,1020.47
2022-10-06T08:41:10.565Z,1020.57
2022-10-06T08:42:11.976Z,1020.74
2022-10-06T08:43:12.280Z,1020.66
2022-10-06T08:44:12.406Z,1020.76
2022-10-06T08:45:12.573Z,1020.67
2022-10-06T08:46:12.740Z,1020.75
2022-10-06T08:47:11.419Z,1020.75
2022-10-06T08:48:13.662Z,1020.70
2022-10-06T08:49:13.857Z,1020.81
2022-10-06T08:50:12.390Z,1020.74
2022-10-06T08:51:14.488Z,1020.78
2022-10-06T08:52:12.924Z,1020.88
2022-10-06T08:53:16.293Z,1020.85
2022-10-06T08:54:15.356Z,1020.81
2022-10-06T08:55:13.791Z,1020.87
2022-10-06T08:56:15.973Z,1020.82
2022-10-06T08:57:16.304Z,1020.84
2022-10-06T08:58:16.385Z,1020.84
2022-10-06T08:59:16.573Z,1020.90
2022-10-06T09:00:19.487Z,1020.90
2022-10-06T09:01:18.475Z,1020.95
2022-10-06T09:02:15.826Z,1021.00
2022-10-06T09:03:16.900Z,1020.99
2022-10-06T09:04:18.274Z,1020.89
2022-10-06T09:05:16.587Z,1021.01
2022-10-06T09:06:18.784Z,1020.99
2022-10-06T09:07:17.094Z,1021.07
2022-10-06T09:08:17.333Z,1021.09
2022-10-06T09:09:19.513Z,1021.00
2022-10-06T09:10:18.083Z,1021.06
2022-10-06T09:11:20.029Z,1021.13
2022-10-06T09:12:18.466Z,1021.01
2022-10-06T09:13:21.748Z,1021.19
2022-10-06T09:14:19.050Z,1021.12
2022-10-06T09:15:20.105Z,1021.24
2022-10-06T09:16:19.605Z,1021.15
2022-10-06T09:17:21.716Z,1021.23
2022-10-06T09:18:20.154Z,1021.22
2022-10-06T09:19:20.413Z,1021.26
2022-10-06T09:20:20.707Z,1021.31
2022-10-06T09:21:24.353Z,1021.30
2022-10-06T09:22:21.210Z,1021.30
2022-10-06T09:23:23.378Z,1021.37
2022-10-06T09:24:21.693Z,1021.40
2022-10-06T09:25:23.845Z,1021.32
2022-10-06T09:26:24.036Z,1021.38
2022-10-06T09:27:22.489Z,1021.41
2022-10-06T09:28:22.771Z,1021.44
2022-10-06T09:29:22.982Z,1021.28
2022-10-06T09:30:26.140Z,1021.28
2022-10-06T09:31:24.949Z,1021.14
2022-10-06T09:32:25.649Z,1021.50
2022-10-06T09:33:24.084Z,1021.45
2022-10-06T09:34:24.333Z,1021.50
2022-10-06T09:35:27.493Z,1021.46
2022-10-06T09:36:24.814Z,1021.47
2022-10-06T09:37:26.988Z,1021.59
2022-10-06T09:38:25.299Z,1021.54
2022-10-06T09:39:25.538Z,1021.53
2022-10-06T09:40:26.661Z,1021.49
2022-10-06T09:41:27.063Z,1021.46
2022-10-06T09:42:26.375Z,1021.51
2022-10-06T09:43:26.615Z,1021.61
2022-10-06T09:44:26.860Z,1021.55
2022-10-06T09:45:30.522Z,1021.49
2022-10-06T09:46:27.344Z,1021.65
2022-10-06T09:47:30.972Z,1021.56
2022-10-06T09:48:31.168Z,1021.62
2022-10-06T09:49:28.108Z,1021.75
2022-10-06T09:50:31.815Z,1021.77
2022-10-06T09:51:29.603Z,1021.76
2022-10-06T09:52:30.827Z,1021.74
2022-10-06T09:53:35.489Z,1021.77
2022-10-06T09:54:31.449Z,1021.72
2022-10-06T09:55:30.756Z,1021.73
2022-10-06T09:56:31.995Z,1021.70
2022-10-06T09:57:32.185Z,1021.74
2022-10-06T09:58:30.611Z,1021.73
2022-10-06T09:59:30.857Z,1021.71
2022-10-06T10:00:34.034Z,1021.74
2022-10-06T10:01:33.303Z,1021.74
2022-10-06T10:02:33.514Z,1021.74
2022-10-06T10:03:32.904Z,1021.80
2022-10-06T10:04:33.259Z,1021.70
2022-10-06T10:05:36.011Z,1021.77
2022-10-06T10:06:32.839Z,1021.82
2022-10-06T10:07:35.022Z,1021.75
2022-10-06T10:09:33.545Z,1021.83
2022-10-06T10:10:37.199Z,1021.89
2022-10-06T10:11:34.949Z,1021.83
2022-10-06T10:12:35.788Z,1021.88
2022-10-06T10:13:34.491Z,1021.92
2022-10-06T10:14:37.623Z,1021.98
2022-10-06T10:15:38.323Z,1021.95
2022-10-06T10:16:36.308Z,1022.03
2022-10-06T10:17:38.415Z,1022.04
2022-10-06T10:18:36.815Z,1022.06
2022-10-06T10:19:36.999Z,1022.05
2022-10-06T10:20:39.871Z,1022.08
2022-10-06T10:21:38.622Z,1022.12
2022-10-06T10:22:38.806Z,1022.10
2022-10-06T10:23:38.990Z,1022.15
2022-10-06T10:24:38.502Z,1022.13
2022-10-06T10:25:38.772Z,1022.14
2022-10-06T10:26:40.006Z,1022.02
2022-10-06T10:27:38.339Z,1022.09
2022-10-06T10:28:40.523Z,1022.14
2022-10-06T10:29:38.824Z,1022.18
2022-10-06T10:30:40.037Z,1022.14
2022-10-06T10:31:40.465Z,1022.15
2022-10-06T10:32:41.521Z,1022.16
2022-10-06T10:33:49.672Z,1022.22
2022-10-06T10:34:41.281Z,1022.26
2022-10-06T10:35:43.465Z,1022.18
2022-10-06T10:36:40.902Z,1022.28
2022-10-06T10:37:41.143Z,1022.26
2022-10-06T10:38:44.837Z,1022.31
2022-10-06T10:39:41.925Z,1022.30
2022-10-06T10:40:41.989Z,1022.30
2022-10-06T10:41:42.232Z,1022.34
2022-10-06T10:42:43.423Z,1022.38
2022-10-06T10:43:42.827Z,1022.43
2022-10-06T10:44:42.948Z,1022.26
2022-10-06T10:45:43.194Z,1022.40
2022-10-06T10:46:43.534Z,1022.43
2022-10-06T10:47:44.652Z,1022.41
2022-10-06T10:48:46.039Z,1022.42
2022-10-06T10:49:46.112Z,1022.52
2022-10-06T10:50:46.245Z,1022.54
2022-10-06T10:51:46.426Z,1022.60
2022-10-06T10:52:47.105Z,1022.43
2022-10-06T10:53:46.563Z,1022.50
2022-10-06T10:54:47.803Z,1022.41
2022-10-06T10:55:47.988Z,1022.43
2022-10-06T10:56:48.170Z,1022.45
2022-10-06T10:57:48.345Z,1022.60
2022-10-06T10:58:50.061Z,1022.64
2022-10-06T10:59:48.801Z,1022.62
2022-10-06T11:00:49.561Z,1022.63
2022-10-06T11:01:48.743Z,1022.58
2022-10-06T11:02:49.889Z,1022.53
2022-10-06T11:03:51.080Z,1022.61
2022-10-06T11:04:48.640Z,1022.65
2022-10-06T11:05:50.854Z,1022.60
2022-10-06T11:06:49.146Z,1022.52
2022-10-06T11:07:49.409Z,1022.72
2022-10-06T11:08:49.636Z,1022.69
2022-10-06T11:09:49.881Z,1022.62
2022-10-06T11:10:52.075Z,1022.73
2022-10-06T11:11:52.433Z,1022.76
2022-10-06T11:12:50.678Z,1022.66
2022-10-06T11:13:50.973Z,1022.73
2022-10-06T11:14:51.219Z,1022.68
2022-10-06T11:15:53.495Z,1022.72
2022-10-06T11:16:53.600Z,1022.69
2022-10-06T11:17:52.042Z,1022.76
2022-10-06T11:18:52.282Z,1022.73
2022-10-06T11:19:52.519Z,1022.77
2022-10-06T11:20:54.675Z,1022.77
2022-10-06T11:21:54.864Z,1022.80
2022-10-06T11:22:55.090Z,1022.78
2022-10-06T11:23:53.648Z,1022.89
2022-10-06T11:24:53.926Z,1023.01
2022-10-06T11:25:54.140Z,1022.86
2022-10-06T11:26:54.381Z,1022.86
2022-10-06T11:27:56.619Z,1022.73
2022-10-06T11:28:56.718Z,1022.83
2022-10-06T11:29:55.321Z,1022.93
2022-10-06T11:30:57.342Z,1022.89
2022-10-06T11:31:57.680Z,1022.89
2022-10-06T11:32:56.087Z,1022.96
2022-10-06T11:33:59.734Z,1022.98
2022-10-06T11:36:13.857Z,1022.92
2022-10-06T11:37:13.682Z,1022.94
2022-10-06T11:38:12.983Z,1022.88
2022-10-06T11:39:15.167Z,1022.90
2022-10-06T11:40:13.494Z,1022.96
2022-10-06T11:41:17.188Z,1022.98
2022-10-06T11:42:15.038Z,1023.00
2022-10-06T11:43:14.335Z,1023.00
2022-10-06T11:44:16.522Z,1022.93
2022-10-06T11:45:14.841Z,1023.02
2022-10-06T11:46:16.126Z,1023.00
2022-10-06T11:47:17.373Z,1023.00
2022-10-06T11:48:15.670Z,1022.95
2022-10-06T11:49:15.909Z,1023.06
2022-10-06T11:50:18.071Z,1022.95
2022-10-06T11:51:17.428Z,1023.02
2022-10-06T11:52:18.652Z,1023.06
2022-10-06T11:53:16.959Z,1023.02
2022-10-06T11:54:17.198Z,1023.06
2022-10-06T11:55:19.401Z,1023.12
2022-10-06T11:56:18.743Z,1023.00
2022-10-06T11:57:19.074Z,1023.04
2022-10-06T11:59:21.147Z,1023.08
2022-10-06T12:00:18.976Z,1023.09
2022-10-06T12:01:20.186Z,1023.25
2022-10-06T12:02:19.554Z,1023.10
2022-10-06T12:03:21.715Z,1023.09
2022-10-06T12:04:24.386Z,1023.14
2022-10-06T12:05:54.900Z,1023.06
2022-10-06T12:06:23.168Z,1023.02
2022-10-06T12:07:20.981Z,1023.05
2022-10-06T12:08:23.178Z,1023.04
2022-10-06T12:09:22.341Z,1023.00
2022-10-06T12:10:21.779Z,1023.09
2022-10-06T12:11:25.447Z,1023.09
2022-10-06T12:12:22.275Z,1023.15
2022-10-06T12:17:05.612Z,1023.12